Time;durP1;ratioP1;P1;durP2;ratioP2;P2;SDS_P1;SDS_P2;PMS_P1;PMS_P2;Temp;Humidity;BMP_temperature;BMP_pressure;BME280_temperature;BME280_humidity;BME280_pressure;Samples;Min_cycle;Max_cycle;Signal;HPM_P1;HPM_P2
2021/11/23 11:38:55;;;;;;;2.00;0.95;;;;;;;17.57;57.18;103165.13;5132185;27;20333;-88
2021/11/23 11:41:42;;;;;;;3.42;1.20;;;;;;;17.58;57.07;103166.88;5060553;28;20065;-86
2021/11/23 11:44:20;;;;;;;1.83;0.93;;;;;;;17.57;57.18;103159.91;5112680;28;20022;-84
2021/11/23 11:46:59;;;;;;;3.55;1.38;;;;;;;17.58;56.83;103158.19;5093641;28;20019;-85
2021/11/23 11:49:46;;;;;;;2.92;1.13;;;;;;;17.59;57.20;103153.00;5093574;28;20423;-86
2021/11/23 11:52:12;;;;;;;2.63;1.20;;;;;;;17.61;57.05;103155.66;5093473;28;20030;-86
2021/11/23 11:54:37;;;;;;;2.30;1.10;;;;;;;17.62;57.01;103153.09;5093362;28;20107;-87
2021/11/23 11:57:03;;;;;;;3.15;1.20;;;;;;;17.61;57.02;103148.72;5059782;28;20047;-87
2021/11/23 11:59:32;;;;;;;2.15;1.10;;;;;;;17.64;57.01;103155.75;5076655;28;20488;-88
2021/11/23 12:02:03;;;;;;;1.98;1.00;;;;;;;17.65;56.86;103149.69;5112223;28;20027;-85
2021/11/23 12:04:32;;;;;;;2.50;1.25;;;;;;;17.71;56.75;103151.59;5094088;28;20380;-87
2021/11/23 12:07:00;;;;;;;2.10;1.02;;;;;;;17.73;56.86;103150.78;5098078;28;20031;-85
2021/11/23 12:09:40;;;;;;;3.13;1.10;;;;;;;17.71;56.66;103152.47;5083082;28;20038;-85
2021/11/23 12:12:08;;;;;;;1.70;1.00;;;;;;;17.71;56.67;103146.38;5093809;28;20119;-87
2021/11/23 12:14:53;;;;;;;2.03;1.05;;;;;;;17.71;56.66;103146.38;5093314;28;20361;-87
2021/11/23 12:17:29;;;;;;;2.78;1.00;;;;;;;17.71;56.60;103141.19;5093015;28;20035;-84
2021/11/23 12:20:07;;;;;;;1.80;1.20;;;;;;;17.70;56.66;103140.28;5111000;28;20362;-83
2021/11/23 12:22:41;;;;;;;1.88;0.90;;;;;;;17.72;56.74;103150.75;5092723;28;20050;-86
2021/11/23 12:25:11;;;;;;;2.30;1.10;;;;;;;17.72;56.52;103143.81;5110844;28;20376;-84
2021/11/23 12:27:42;;;;;;;2.75;1.17;;;;;;;17.68;56.84;103148.06;5093335;28;20091;-82
2021/11/23 12:30:08;;;;;;;1.80;0.90;;;;;;;17.66;56.78;103143.66;5092609;28;20102;-83
2021/11/23 12:32:37;;;;;;;2.22;1.08;;;;;;;17.62;56.46;103142.69;5075563;28;20028;-84
2021/11/23 12:35:04;;;;;;;2.35;1.10;;;;;;;17.62;56.83;103140.09;5075509;28;20067;-86
2021/11/23 12:37:35;;;;;;;2.22;1.00;;;;;;;17.62;56.74;103144.41;5110254;28;20044;-82
2021/11/23 12:40:11;;;;;;;2.00;1.20;;;;;;;17.63;56.60;103144.44;5092299;28;20024;-85
2021/11/23 12:42:50;;;;;;;2.90;1.10;;;;;;;17.63;57.03;103138.34;5110438;28;20027;-85
2021/11/23 12:45:16;;;;;;;2.22;1.00;;;;;;;17.61;56.70;103135.69;5078081;28;20469;-83
2021/11/23 12:47:41;;;;;;;1.63;0.95;;;;;;;17.61;56.46;103133.09;5092206;28;20016;-82
2021/11/23 12:50:07;;;;;;;2.35;1.02;;;;;;;17.62;56.55;103141.81;5062674;28;20469;-83
2021/11/23 12:52:33;;;;;;;2.33;0.98;;;;;;;17.63;56.68;103135.75;5062119;28;20119;-81
2021/11/23 12:54:59;;;;;;;2.10;1.05;;;;;;;17.63;56.40;103131.41;5061899;28;20020;-84
2021/11/23 12:57:26;;;;;;;1.75;1.00;;;;;;;17.65;56.63;103139.28;5078525;28;20028;-85
2021/11/23 12:59:53;;;;;;;2.80;1.08;;;;;;;17.66;56.77;103134.13;5078507;28;20107;-83
2021/11/23 13:02:28;;;;;;;1.55;0.90;;;;;;;17.67;56.44;103129.78;5078606;28;20385;-85
2021/11/23 13:04:57;;;;;;;2.92;1.10;;;;;;;17.66;56.69;103133.25;5078352;28;20020;-83
2021/11/23 13:07:25;;;;;;;1.55;0.95;;;;;;;17.64;56.42;103129.72;5078413;28;20119;-85
2021/11/23 13:10:02;;;;;;;1.58;0.73;;;;;;;17.63;56.55;103128.81;5078862;28;20039;-85
2021/11/23 13:12:32;;;;;;;1.42;0.75;;;;;;;17.63;56.42;103123.59;5096346;28;20550;-82
2021/11/23 13:15:03;;;;;;;2.70;1.00;;;;;;;17.63;56.42;103128.81;5078051;28;20032;-84
2021/11/23 13:17:45;;;;;;;2.88;1.00;;;;;;;17.64;56.34;103125.38;5077999;28;20500;-83
2021/11/23 13:20:44;;;;;;;2.75;1.20;;;;;;;17.66;56.28;103123.72;5078079;28;20028;-83
2021/11/23 13:23:25;;;;;;;1.80;0.80;;;;;;;17.66;56.22;103118.50;5038631;28;20032;-85
2021/11/23 13:26:14;;;;;;;2.33;0.90;;;;;;;17.68;56.25;103110.72;5078071;28;20523;-84
2021/11/23 13:29:00;;;;;;;1.67;0.88;;;;;;;17.68;56.25;103114.22;5077977;28;20107;-86
2021/11/23 13:31:26;;;;;;;1.75;0.90;;;;;;;17.68;56.21;103114.22;5077805;28;20027;-85
2021/11/23 13:34:04;;;;;;;1.45;0.80;;;;;;;17.72;56.29;103107.34;5061038;28;20027;-82
2021/11/23 13:36:39;;;;;;;2.38;1.00;;;;;;;17.74;56.12;103112.59;5077716;28;20031;-83
2021/11/23 13:39:04;;;;;;;2.17;0.88;;;;;;;17.76;56.11;103103.97;5078073;28;20028;-86
2021/11/23 13:41:34;;;;;;;2.00;0.85;;;;;;;17.76;56.05;103109.19;5078102;28;20446;-86
2021/11/23 13:44:02;;;;;;;1.55;0.90;;;;;;;17.80;55.83;103111.03;5078161;28;20039;-85
2021/11/23 13:46:51;;;;;;;2.30;0.88;;;;;;;17.83;56.07;103111.16;5077726;28;20020;-84
2021/11/23 13:49:36;;;;;;;1.80;0.80;;;;;;;17.83;56.06;103111.16;5096112;28;20024;-83
2021/11/23 13:52:22;;;;;;;1.48;0.93;;;;;;;17.86;55.99;103107.75;5078291;28;20024;-84
2021/11/23 13:54:55;;;;;;;1.23;0.70;;;;;;;17.87;55.91;103102.56;5077935;28;20035;-86
2021/11/23 13:57:23;;;;;;;1.60;0.82;;;;;;;17.87;56.08;103105.16;5078304;28;20016;-85
2021/11/23 13:59:56;;;;;;;1.88;0.85;;;;;;;17.85;56.02;103098.16;5077915;28;20478;-85
2021/11/23 14:02:57;;;;;;;2.50;0.73;;;;;;;17.87;56.26;103099.97;5077378;28;20030;-85
2021/11/23 14:05:39;;;;;;;2.30;0.90;;;;;;;17.87;56.04;103099.97;5077402;28;20024;-86
2021/11/23 14:08:05;;;;;;;2.00;0.80;;;;;;;17.87;55.78;103102.56;5095478;28;20508;-84
2021/11/23 14:10:40;;;;;;;1.88;0.85;;;;;;;17.88;56.09;103101.75;5077554;28;20124;-85
2021/11/23 14:13:17;;;;;;;1.70;0.95;;;;;;;17.89;55.90;103098.28;5077030;28;20027;-85
2021/11/23 14:15:44;;;;;;;1.65;0.80;;;;;;;17.87;55.81;103094.75;5076914;28;20443;-84
2021/11/23 14:18:15;;;;;;;1.27;0.60;;;;;;;17.90;55.99;103096.56;5077034;28;20133;-85
2021/11/23 14:20:46;;;;;;;1.05;0.65;;;;;;;17.92;55.88;103105.31;5077039;28;20052;-85
2021/11/23 14:23:32;;;;;;;1.70;0.90;;;;;;;17.91;55.99;103100.94;5076795;28;20024;-85
2021/11/23 14:26:06;;;;;;;1.70;0.70;;;;;;;18.07;55.52;103096.97;5076793;28;20031;-85
2021/11/23 14:28:37;;;;;;;1.08;0.70;;;;;;;18.09;55.50;103097.88;5076803;28;20027;-85
2021/11/23 14:31:06;;;;;;;1.60;0.70;;;;;;;18.01;55.62;103089.91;5077835;28;20032;-83
2021/11/23 14:33:32;;;;;;;1.00;0.60;;;;;;;17.99;55.82;103091.59;5060435;28;20028;-85
2021/11/23 14:35:58;;;;;;;0.95;0.60;;;;;;;17.98;55.76;103095.00;5076256;28;20024;-85
2021/11/23 14:38:25;;;;;;;1.67;0.70;;;;;;;18.01;55.74;103087.28;5076453;28;20055;-85
2021/11/23 14:40:54;;;;;;;2.00;0.80;;;;;;;18.04;55.67;103086.47;5076522;28;20389;-84
2021/11/23 14:43:20;;;;;;;1.45;0.77;;;;;;;18.02;55.81;103090.78;5077328;28;20098;-85
2021/11/23 14:45:48;;;;;;;1.75;0.80;;;;;;;17.99;55.81;103090.72;5077300;28;20024;-85
2021/11/23 14:48:17;;;;;;;1.92;0.80;;;;;;;17.97;55.78;103089.78;5044426;28;20020;-85
2021/11/23 14:50:42;;;;;;;1.58;0.70;;;;;;;17.94;56.03;103097.50;5061129;28;20038;-85
2021/11/23 14:53:09;;;;;;;1.52;0.73;;;;;;;17.90;56.05;103091.38;5061333;28;20114;-86
2021/11/23 14:55:35;;;;;;;1.55;0.73;;;;;;;17.89;56.18;103093.06;5098791;28;20024;-85
2021/11/23 14:58:01;;;;;;;1.55;0.80;;;;;;;17.85;56.04;103088.63;5064488;28;20093;-84
2021/11/23 15:00:29;;;;;;;1.83;0.70;;;;;;;17.83;56.07;103092.03;5076480;28;20477;-82
2021/11/23 15:02:54;;;;;;;1.08;0.60;;;;;;;17.82;56.29;103101.56;5076498;28;20084;-83
2021/11/23 15:05:21;;;;;;;1.05;0.65;;;;;;;17.80;56.26;103097.13;5059588;28;20442;-85
2021/11/23 15:07:46;;;;;;;1.52;0.60;;;;;;;17.78;56.25;103093.63;5043371;28;20035;-84
2021/11/23 15:10:12;;;;;;;1.05;0.68;;;;;;;17.77;56.28;103094.44;5076480;28;20024;-86
2021/11/23 15:12:38;;;;;;;1.13;0.70;;;;;;;17.76;56.30;103096.16;5059273;28;20036;-84
2021/11/23 15:15:06;;;;;;;2.40;0.70;;;;;;;17.75;56.40;103094.44;5076658;28;20429;-84
2021/11/23 15:17:31;;;;;;;2.97;0.80;;;;;;;17.75;56.24;103090.94;5076187;28;20469;-90
2021/11/23 15:19:56;;;;;;;2.47;0.70;;;;;;;17.78;56.31;103094.50;5076518;28;20028;-85
2021/11/23 15:22:22;;;;;;;1.67;0.60;;;;;;;17.78;56.12;103099.69;5043259;28;20032;-85
2021/11/23 15:24:48;;;;;;;1.88;0.63;;;;;;;17.77;56.26;103097.03;5075979;28;20022;-82
2021/11/23 15:27:13;;;;;;;4.45;0.70;;;;;;;17.77;56.46;103099.66;5076180;28;20103;-86
2021/11/23 15:29:39;;;;;;;4.50;0.70;;;;;;;17.74;56.36;103100.47;5076004;28;20035;-86
2021/11/23 15:32:07;;;;;;;3.42;0.68;;;;;;;17.73;56.41;103103.91;5075943;28;20093;-86
2021/11/23 15:34:34;;;;;;;2.67;0.70;;;;;;;17.74;56.55;103102.19;5043524;28;20128;-91
2021/11/23 15:37:01;;;;;;;1.23;0.70;;;;;;;17.73;56.44;103100.44;5075296;28;20084;-84
2021/11/23 15:39:27;;;;;;;1.50;0.60;;;;;;;17.72;56.18;103103.88;5075789;28;20385;-87
2021/11/23 15:41:53;;;;;;;3.25;0.70;;;;;;;17.71;56.77;103108.19;5043417;28;20052;-91
2021/11/23 15:44:19;;;;;;;1.02;0.50;;;;;;;17.69;56.52;103113.34;5076649;28;20461;-90
2021/11/23 15:46:44;;;;;;;1.08;0.57;;;;;;;17.68;56.59;103116.81;5076756;28;20028;-91
2021/11/23 15:49:10;;;;;;;1.17;0.75;;;;;;;17.68;56.68;103115.91;5060015;28;20024;-90
2021/11/23 15:51:36;;;;;;;2.33;0.80;;;;;;;17.67;56.51;103115.03;5060169;28;20113;-92
2021/11/23 15:54:04;;;;;;;1.27;0.60;;;;;;;17.66;56.43;103110.69;5076813;28;20032;-91
2021/11/23 15:56:30;;;;;;;1.55;0.60;;;;;;;17.67;56.61;103107.22;5044470;28;20039;-93
2021/11/23 15:58:55;;;;;;;1.35;0.60;;;;;;;17.70;56.51;103109.03;5058380;28;20071;-92
2021/11/23 16:01:24;;;;;;;1.50;0.70;;;;;;;17.71;56.46;103110.81;5060419;28;20031;-93
2021/11/23 16:03:53;;;;;;;1.70;0.90;;;;;;;17.72;56.29;103103.88;5044608;28;20374;-92
2021/11/23 16:06:18;;;;;;;1.88;0.77;;;;;;;17.74;56.33;103100.47;5060403;28;20381;-91
2021/11/23 16:08:46;;;;;;;1.10;0.60;;;;;;;17.75;56.21;103104.84;5059885;28;20028;-91
2021/11/23 16:11:11;;;;;;;0.90;0.50;;;;;;;17.76;56.15;103109.19;5044024;28;20028;-91
2021/11/23 16:13:40;;;;;;;1.27;0.60;;;;;;;17.76;56.29;103109.19;5060404;28;20086;-89
2021/11/23 16:16:05;;;;;;;1.73;0.60;;;;;;;17.76;56.20;103103.97;5060351;28;20070;-90
2021/11/23 16:18:31;;;;;;;1.27;0.60;;;;;;;17.78;56.24;103102.31;5043459;28;20028;-91
2021/11/23 16:20:58;;;;;;;1.88;0.80;;;;;;;17.77;56.41;103108.38;5060137;28;20093;-90
2021/11/23 16:23:24;;;;;;;2.03;0.70;;;;;;;17.79;56.24;103103.19;5059890;28;20031;-91
2021/11/23 16:25:50;;;;;;;1.45;0.60;;;;;;;17.80;56.04;103110.16;5098875;28;20081;-92
2021/11/23 16:28:18;;;;;;;0.95;0.50;;;;;;;17.78;56.34;103102.31;5080357;28;20115;-91
2021/11/23 16:30:43;;;;;;;1.83;0.70;;;;;;;17.79;56.32;103104.09;5063368;28;20051;-90
2021/11/23 16:33:09;;;;;;;1.75;0.65;;;;;;;17.79;56.33;103104.09;5063456;28;20024;-90
2021/11/23 16:35:37;;;;;;;1.40;0.60;;;;;;;17.80;56.15;103104.94;5063878;28;20385;-89
2021/11/23 16:38:03;;;;;;;1.50;0.80;;;;;;;17.80;56.24;103103.22;5064803;28;20040;-91
2021/11/23 16:40:28;;;;;;;1.40;0.70;;;;;;;17.80;56.17;103095.41;5063568;28;20032;-90
2021/11/23 16:42:54;;;;;;;1.23;0.60;;;;;;;17.82;56.44;103098.09;5064837;28;20027;-85
2021/11/23 16:45:19;;;;;;;2.05;0.80;;;;;;;17.81;56.26;103104.09;5079286;28;20073;-85
2021/11/23 16:47:45;;;;;;;1.05;0.60;;;;;;;17.80;56.42;103100.63;5079785;28;20031;-84
2021/11/23 16:50:11;;;;;;;1.60;0.73;;;;;;;17.83;56.33;103094.63;5078637;28;20470;-83
2021/11/23 16:52:36;;;;;;;1.40;0.70;;;;;;;17.82;56.39;103093.75;5061984;28;20032;-85
2021/11/23 16:55:04;;;;;;;1.85;0.70;;;;;;;17.83;56.75;103100.75;5045390;28;20028;-83
2021/11/23 16:57:29;;;;;;;2.75;0.50;;;;;;;17.85;56.57;103095.56;5078817;28;20397;-85
2021/11/23 16:59:55;;;;;;;2.88;0.73;;;;;;;17.85;56.62;103095.56;5062454;28;20027;-85
2021/11/23 17:02:21;;;;;;;1.27;0.73;;;;;;;17.84;56.66;103105.09;5062071;28;20028;-87
2021/11/23 17:04:47;;;;;;;1.70;0.80;;;;;;;17.85;56.77;103099.03;5078523;28;20461;-87
2021/11/23 17:07:14;;;;;;;1.65;0.80;;;;;;;17.85;56.84;103100.75;5062081;28;20469;-85
2021/11/23 17:09:40;;;;;;;1.67;0.70;;;;;;;17.85;56.84;103095.56;5079175;28;20116;-84
2021/11/23 17:12:08;;;;;;;1.15;0.60;;;;;;;17.85;56.95;103093.81;5078712;28;20115;-83
2021/11/23 17:14:33;;;;;;;1.38;0.60;;;;;;;17.86;56.88;103095.59;5062340;28;20032;-88
2021/11/23 17:16:59;;;;;;;1.45;0.73;;;;;;;17.87;57.15;103099.97;5061909;28;20419;-83
2021/11/23 17:19:24;;;;;;;2.17;0.77;;;;;;;17.87;56.92;103094.75;5078535;28;20031;-82
2021/11/23 17:21:51;;;;;;;1.63;0.80;;;;;;;17.85;57.22;103099.03;5061040;28;20035;-81
2021/11/23 17:24:17;;;;;;;1.58;0.88;;;;;;;17.83;57.08;103097.25;5077747;28;20137;-80
2021/11/23 17:26:45;;;;;;;2.03;1.20;;;;;;;17.81;57.08;103099.78;5061398;28;20032;-82
2021/11/23 17:29:13;;;;;;;2.70;1.40;;;;;;;17.78;56.92;103099.69;5061187;28;20024;-83
2021/11/23 17:31:39;;;;;;;2.25;1.10;;;;;;;17.76;57.09;103103.97;5077768;28;20016;-84
2021/11/23 17:34:05;;;;;;;1.88;1.10;;;;;;;17.75;57.08;103094.44;5061078;28;20020;-80
2021/11/23 17:36:32;;;;;;;3.25;1.30;;;;;;;17.75;56.68;103096.16;5077276;28;20055;-85
2021/11/23 17:38:58;;;;;;;2.25;1.25;;;;;;;17.78;56.86;103091.88;5062888;28;20057;-89
2021/11/23 17:41:27;;;;;;;1.85;1.10;;;;;;;17.77;56.79;103086.63;5062868;28;20024;-87
2021/11/23 17:43:53;;;;;;;2.90;1.58;;;;;;;17.76;56.60;103088.34;5065542;28;20377;-87
2021/11/23 17:46:19;;;;;;;2.33;1.30;;;;;;;17.76;56.60;103088.34;5084564;28;20032;-92
2021/11/23 17:48:47;;;;;;;3.75;1.35;;;;;;;17.76;57.01;103080.53;5062336;28;20435;-82
2021/11/23 17:51:13;;;;;;;3.25;1.25;;;;;;;17.76;57.01;103085.75;5095913;28;20024;-83
2021/11/23 17:53:41;;;;;;;3.00;1.40;;;;;;;17.77;56.37;103092.75;5077781;28;20030;-81
2021/11/23 17:56:06;;;;;;;2.03;1.35;;;;;;;17.76;56.92;103085.75;5061418;28;20032;-85
2021/11/23 17:58:32;;;;;;;3.08;1.40;;;;;;;17.78;56.83;103086.69;5060848;28;20081;-83
2021/11/23 18:01:00;;;;;;;3.38;1.30;;;;;;;17.79;57.12;103087.53;5077232;28;20032;-83
2021/11/23 18:03:30;;;;;;;4.80;1.40;;;;;;;17.80;57.04;103085.00;5077132;28;20058;-82
2021/11/23 18:05:57;;;;;;;3.47;1.50;;;;;;;17.82;57.58;103083.34;5077500;28;20074;-86
2021/11/23 18:08:26;;;;;;;2.38;1.35;;;;;;;17.83;57.30;103086.81;5060605;28;20034;-84
2021/11/23 18:10:53;;;;;;;3.28;1.38;;;;;;;17.81;57.73;103080.66;5076868;28;20489;-84
2021/11/23 18:13:20;;;;;;;3.70;1.50;;;;;;;17.80;57.79;103082.38;5060245;28;20036;-80
2021/11/23 18:15:46;;;;;;;2.35;1.40;;;;;;;17.81;57.92;103083.25;5077005;28;20024;-80
2021/11/23 18:18:14;;;;;;;2.78;1.38;;;;;;;17.82;57.63;103079.88;5076782;28;20028;-82
2021/11/23 18:20:46;;;;;;;1.67;1.05;;;;;;;17.83;57.79;103079.91;5076585;28;20524;-80
2021/11/23 18:23:13;;;;;;;4.13;1.20;;;;;;;17.83;57.92;103085.13;5076625;28;20026;-81
2021/11/23 18:25:38;;;;;;;3.78;1.30;;;;;;;17.81;57.76;103084.16;5076699;28;20034;-81
2021/11/23 18:28:04;;;;;;;2.40;1.48;;;;;;;17.81;57.88;103084.16;5076456;28;20016;-80
2021/11/23 18:30:31;;;;;;;2.35;1.25;;;;;;;17.80;57.93;103078.91;5076436;28;20033;-82
2021/11/23 18:32:58;;;;;;;2.08;1.20;;;;;;;17.78;57.94;103084.06;5076398;28;20503;-86
2021/11/23 18:35:27;;;;;;;4.50;1.20;;;;;;;17.76;58.20;103085.75;5060077;28;20039;-88
2021/11/23 18:37:54;;;;;;;2.20;1.30;;;;;;;17.77;58.02;103084.03;5061006;28;20044;-79
2021/11/23 18:40:22;;;;;;;4.20;1.50;;;;;;;17.75;58.22;103076.19;5054272;28;20021;-84
2021/11/23 18:42:48;;;;;;;3.13;1.60;;;;;;;17.75;58.42;103072.72;5053266;28;20108;-80
2021/11/23 18:45:14;;;;;;;2.20;1.23;;;;;;;17.75;58.21;103070.97;5036278;28;20450;-83
2021/11/23 18:47:40;;;;;;;2.70;1.30;;;;;;;17.75;58.39;103062.31;5053780;28;20074;-82
2021/11/23 18:50:08;;;;;;;2.40;1.38;;;;;;;17.75;58.12;103068.38;5052866;28;20092;-81
2021/11/23 18:52:33;;;;;;;2.42;1.15;;;;;;;17.69;57.97;103063.88;5036554;28;20033;-82
2021/11/23 18:54:59;;;;;;;3.83;1.33;;;;;;;17.66;58.10;103062.94;5019896;28;20367;-88
2021/11/23 18:57:25;;;;;;;2.10;1.25;;;;;;;17.64;57.92;103059.41;5020566;28;20498;-89
2021/11/23 18:59:53;;;;;;;2.38;1.30;;;;;;;17.59;58.39;103064.47;5037112;28;20504;-88
2021/11/23 19:02:23;;;;;;;3.72;1.60;;;;;;;17.57;57.93;103058.38;5053729;28;20029;-90
2021/11/23 19:04:52;;;;;;;2.90;1.65;;;;;;;17.58;58.12;103054.06;5037904;28;20032;-90
2021/11/23 19:07:18;;;;;;;1.88;1.42;;;;;;;17.54;58.23;103060.88;5037451;28;20033;-87
2021/11/23 19:09:45;;;;;;;2.05;1.20;;;;;;;17.53;58.20;103063.44;5053783;28;20140;-89
2021/11/23 19:12:15;;;;;;;2.47;1.48;;;;;;;17.53;57.88;103063.44;5053549;28;20013;-92
2021/11/23 19:14:40;;;;;;;2.30;1.58;;;;;;;17.51;58.01;103059.91;5037866;28;20033;-90
2021/11/23 19:17:06;;;;;;;3.13;1.30;;;;;;;17.50;58.25;103065.97;5036952;28;20033;-91
2021/11/23 19:19:32;;;;;;;4.20;1.20;;;;;;;17.51;58.16;103060.81;5053526;28;20016;-89
2021/11/23 19:22:00;;;;;;;2.13;1.65;;;;;;;17.48;58.14;103061.63;5053510;28;20033;-90
2021/11/23 19:24:26;;;;;;;4.32;1.60;;;;;;;17.48;58.14;103060.72;5037987;28;20079;-88
2021/11/23 19:26:51;;;;;;;3.60;2.00;;;;;;;17.48;58.27;103063.31;5037178;28;20033;-86
2021/11/23 19:29:17;;;;;;;5.85;2.50;;;;;;;17.47;58.21;103066.78;5037597;28;20052;-86
2021/11/23 19:31:43;;;;;;;4.63;2.22;;;;;;;17.46;58.03;103060.72;5036780;28;20033;-86
2021/11/23 19:34:10;;;;;;;3.08;2.00;;;;;;;17.47;58.39;103072.00;5036438;28;20029;-88
2021/11/23 19:36:36;;;;;;;2.75;1.95;;;;;;;17.46;58.40;103076.31;5038563;28;20025;-87
2021/11/23 19:39:04;;;;;;;3.40;2.15;;;;;;;17.45;58.14;103076.28;5059532;28;20032;-88
2021/11/23 19:41:31;;;;;;;4.05;2.20;;;;;;;17.45;58.28;103077.16;5094352;28;20426;-86
2021/11/23 19:43:57;;;;;;;3.50;2.13;;;;;;;17.46;58.19;103080.63;5059460;28;20043;-85
2021/11/23 19:46:24;;;;;;;7.60;2.42;;;;;;;17.45;58.24;103082.34;5076208;28;20024;-87
2021/11/23 19:48:56;;;;;;;3.53;2.08;;;;;;;17.45;58.06;103082.34;5075596;28;20032;-87
2021/11/23 19:51:26;;;;;;;3.38;2.22;;;;;;;17.44;58.25;103085.81;5075467;28;20024;-87
2021/11/23 19:53:55;;;;;;;3.55;1.92;;;;;;;17.44;57.88;103083.22;5093991;28;20108;-87
2021/11/23 19:56:22;;;;;;;3.47;2.45;;;;;;;17.45;58.19;103081.47;5093964;28;20121;-87
2021/11/23 19:58:52;;;;;;;2.78;2.08;;;;;;;17.46;58.08;103080.63;5059745;28;20119;-87
2021/11/23 20:01:19;;;;;;;3.90;2.40;;;;;;;17.45;58.23;103074.53;5097937;28;20028;-85
2021/11/23 20:03:45;;;;;;;2.95;1.88;;;;;;;17.45;58.21;103078.88;5079862;28;20024;-87
2021/11/23 20:06:12;;;;;;;3.78;2.30;;;;;;;17.45;58.06;103071.06;5063861;28;20039;-88
2021/11/23 20:08:39;;;;;;;3.58;2.25;;;;;;;17.45;58.22;103071.94;5080305;28;20024;-90
2021/11/23 20:11:06;;;;;;;4.03;1.95;;;;;;;17.45;58.36;103079.75;5080370;28;20035;-91
2021/11/23 20:13:31;;;;;;;3.33;2.00;;;;;;;17.44;58.30;103069.28;5080350;28;20035;-88
2021/11/23 20:15:57;;;;;;;3.80;2.00;;;;;;;17.44;57.96;103072.81;5064825;28;20032;-90
2021/11/23 20:18:23;;;;;;;3.08;1.80;;;;;;;17.42;58.13;103069.28;5063997;28;20040;-88
2021/11/23 20:20:48;;;;;;;3.53;1.90;;;;;;;17.44;58.18;103074.50;5063767;28;20389;-88
2021/11/23 20:23:17;;;;;;;3.03;2.08;;;;;;;17.43;58.26;103068.41;5080334;28;20096;-88
2021/11/23 20:25:42;;;;;;;3.97;1.90;;;;;;;17.44;58.41;103070.19;5064947;28;20032;-89
2021/11/23 20:28:08;;;;;;;2.85;1.95;;;;;;;17.43;58.21;103062.34;5081165;28;20058;-90
2021/11/23 20:30:37;;;;;;;2.78;1.77;;;;;;;17.44;58.23;103061.47;5082301;28;20596;-90
2021/11/23 20:33:07;;;;;;;2.42;1.88;;;;;;;17.43;58.08;103063.22;5086275;28;20028;-84
2021/11/23 20:35:32;;;;;;;2.60;2.00;;;;;;;17.44;58.03;103053.66;5064896;28;20123;-89
2021/11/23 20:37:58;;;;;;;2.72;1.90;;;;;;;17.43;58.29;103055.41;5063998;28;20048;-87
2021/11/23 20:40:24;;;;;;;3.33;1.77;;;;;;;17.43;58.14;103051.94;5063845;28;20059;-90
2021/11/23 20:42:50;;;;;;;2.75;1.80;;;;;;;17.41;58.00;103057.09;5047843;28;20059;-89
2021/11/23 20:45:16;;;;;;;2.83;1.67;;;;;;;17.41;57.94;103049.28;5080537;28;20031;-90
2021/11/23 20:47:42;;;;;;;2.97;1.88;;;;;;;17.41;58.12;103044.06;5081346;28;20016;-89
2021/11/23 20:50:08;;;;;;;3.17;1.98;;;;;;;17.42;58.15;103044.94;5080092;28;20028;-89
2021/11/23 20:52:34;;;;;;;2.63;1.80;;;;;;;17.42;58.03;103040.63;5080157;28;20034;-89
2021/11/23 20:54:59;;;;;;;2.63;1.58;;;;;;;17.42;58.08;103042.34;5080424;28;20032;-84
2021/11/23 20:57:27;;;;;;;2.60;1.90;;;;;;;17.40;58.12;103039.72;5079030;28;20024;-88
2021/11/23 20:59:53;;;;;;;2.33;1.45;;;;;;;17.41;58.27;103031.06;5062538;28;20040;-86
2021/11/23 21:02:18;;;;;;;2.63;1.73;;;;;;;17.41;57.99;103033.66;5078779;28;20057;-87
2021/11/23 21:04:43;;;;;;;2.42;1.67;;;;;;;17.41;58.47;103024.97;5062296;28;20076;-85
2021/11/23 21:07:09;;;;;;;3.03;1.60;;;;;;;17.42;58.02;103034.53;5062315;28;20473;-86
2021/11/23 21:09:34;;;;;;;2.85;1.60;;;;;;;17.41;57.73;103027.56;5078749;28;20169;-87
2021/11/23 21:12:00;;;;;;;2.33;1.70;;;;;;;17.42;58.06;103030.22;5062176;28;20130;-84
2021/11/23 21:14:25;;;;;;;2.90;1.60;;;;;;;17.40;58.18;103024.09;5062487;28;20032;-87
2021/11/23 21:16:53;;;;;;;3.45;1.60;;;;;;;17.41;58.09;103027.56;5062205;28;20028;-86
2021/11/23 21:19:19;;;;;;;2.08;1.40;;;;;;;17.41;58.11;103022.38;5045232;28;20500;-85
2021/11/23 21:21:47;;;;;;;2.53;1.52;;;;;;;17.40;58.02;103026.69;5061406;28;20040;-85
2021/11/23 21:24:16;;;;;;;2.38;1.73;;;;;;;17.40;58.26;103024.09;5062431;28;20024;-87
2021/11/23 21:26:41;;;;;;;2.63;1.70;;;;;;;17.40;57.54;103015.41;5062031;28;20039;-86
2021/11/23 21:29:07;;;;;;;2.17;1.40;;;;;;;17.39;57.78;103009.31;5078807;28;20028;-88
2021/11/23 21:31:35;;;;;;;2.22;1.52;;;;;;;17.39;57.82;103011.91;5062722;28;20030;-88
2021/11/23 21:34:00;;;;;;;2.67;1.60;;;;;;;17.40;58.04;103005.88;5062924;28;20135;-91
2021/11/23 21:36:34;;;;;;;2.58;1.50;;;;;;;17.39;57.97;103006.69;5046281;28;20044;-94
2021/11/23 21:39:01;;;;;;;2.95;1.58;;;;;;;17.39;57.83;103005.84;5064423;28;20118;-89
2021/11/23 21:41:29;;;;;;;2.92;1.40;;;;;;;17.39;57.95;103000.63;5062776;28;20028;-89
2021/11/23 21:44:06;;;;;;;2.42;1.50;;;;;;;17.39;57.89;103001.50;5079394;28;20051;-90
2021/11/23 21:46:34;;;;;;;2.67;1.27;;;;;;;17.39;58.07;102993.69;5078926;28;20488;-90
2021/11/23 21:49:02;;;;;;;2.60;1.90;;;;;;;17.39;58.03;103004.09;5062760;28;20199;-88
2021/11/23 21:51:30;;;;;;;3.35;2.42;;;;;;;17.38;57.83;103002.34;5079679;28;20110;-90
2021/11/23 21:53:56;;;;;;;3.08;2.47;;;;;;;17.39;58.17;102996.28;5079195;28;20019;-88
2021/11/23 21:56:23;;;;;;;2.95;2.10;;;;;;;17.38;57.84;102994.56;5061698;28;20120;-85
2021/11/23 21:58:59;;;;;;;3.03;1.90;;;;;;;17.39;57.71;102995.41;5078186;28;20124;-88
2021/11/23 22:01:26;;;;;;;2.83;1.90;;;;;;;17.39;58.09;102987.63;5097086;28;20021;-88
2021/11/23 22:03:54;;;;;;;2.25;1.60;;;;;;;17.39;57.72;102998.03;5079264;28;20051;-88
2021/11/23 22:06:19;;;;;;;2.78;1.88;;;;;;;17.38;57.90;102991.06;5079245;28;20362;-89
2021/11/23 22:08:47;;;;;;;2.95;1.83;;;;;;;17.38;57.88;102997.16;5062599;28;20177;-89
2021/11/23 22:11:15;;;;;;;2.60;1.67;;;;;;;17.39;57.73;102995.41;5061931;28;20040;-89
2021/11/23 22:13:41;;;;;;;2.50;1.42;;;;;;;17.37;57.76;102995.38;5078097;28;20042;-89
2021/11/23 22:16:10;;;;;;;2.38;1.73;;;;;;;17.38;57.90;102993.69;5062663;28;20035;-91
2021/11/23 22:18:42;;;;;;;1.80;1.50;;;;;;;17.38;57.75;102991.06;5079234;28;20525;-90
2021/11/23 22:21:09;;;;;;;3.30;1.88;;;;;;;17.38;57.82;102988.47;5061002;28;20119;-93
2021/11/23 22:23:37;;;;;;;2.28;1.70;;;;;;;17.37;57.63;102990.16;5044382;28;20040;-78
2021/11/23 22:26:04;;;;;;;3.03;2.00;;;;;;;17.36;57.57;102985.81;5094786;28;20107;-79
2021/11/23 22:28:32;;;;;;;3.03;2.20;;;;;;;17.38;57.76;102988.47;5076457;28;20024;-79
2021/11/23 22:30:57;;;;;;;2.78;1.63;;;;;;;17.38;57.74;102985.88;5076748;28;20032;-83
2021/11/23 22:33:23;;;;;;;2.88;2.00;;;;;;;17.38;57.81;102993.69;5076353;28;20035;-81
2021/11/23 22:35:48;;;;;;;2.67;1.90;;;;;;;17.38;57.66;102991.06;5059816;28;20032;-83
2021/11/23 22:38:17;;;;;;;3.60;2.00;;;;;;;17.38;58.08;102991.06;5059334;28;20055;-83
2021/11/23 22:40:43;;;;;;;3.17;1.90;;;;;;;17.37;57.53;102992.78;5059918;28;20028;-81
2021/11/23 22:43:10;;;;;;;2.58;1.75;;;;;;;17.38;57.88;102985.88;5094350;28;20111;-81
2021/11/23 22:45:35;;;;;;;2.83;1.70;;;;;;;17.37;57.79;102981.50;5076601;28;20024;-82
2021/11/23 22:48:01;;;;;;;4.40;1.95;;;;;;;17.37;57.93;102982.34;5059656;28;20030;-81
2021/11/23 22:50:26;;;;;;;2.78;1.75;;;;;;;17.37;57.77;102982.34;5059428;28;20032;-83
2021/11/23 22:52:53;;;;;;;3.28;1.80;;;;;;;17.37;57.87;102984.09;5076093;28;20027;-82
2021/11/23 22:55:19;;;;;;;2.55;1.88;;;;;;;17.36;57.76;102988.41;5076073;28;20030;-82
2021/11/23 22:57:45;;;;;;;3.22;1.55;;;;;;;17.37;57.82;102984.09;5094227;28;20024;-80
2021/11/23 23:00:13;;;;;;;2.75;1.33;;;;;;;17.36;57.80;102980.63;5059190;28;20032;-81
2021/11/23 23:02:40;;;;;;;3.45;1.60;;;;;;;17.37;57.76;102971.06;5059111;28;20078;-81
2021/11/23 23:05:06;;;;;;;4.35;1.90;;;;;;;17.37;57.72;102978.88;5059305;28;20081;-80
2021/11/23 23:07:31;;;;;;;3.90;1.55;;;;;;;17.36;57.54;102978.00;5059426;28;20028;-80